createdAt,value
2018-07-14T00:01:20.432Z,91.80
2018-07-14T00:06:24.912Z,92.20
2018-07-14T00:11:29.134Z,92.30
2018-07-14T00:16:33.284Z,92.40
2018-07-14T00:21:37.897Z,92.70
2018-07-14T00:26:42.754Z,93.00
2018-07-14T00:36:51.461Z,93.60
2018-07-14T00:41:56.180Z,93.40
2018-07-14T00:47:01.356Z,93.40
2018-07-14T00:52:05.519Z,93.70
2018-07-14T00:57:11.026Z,93.90
2018-07-14T01:02:15.569Z,93.90
2018-07-14T01:07:20.362Z,94.20
2018-07-14T01:12:26.231Z,94.40
2018-07-14T01:17:31.647Z,94.30
2018-07-14T01:22:37.757Z,94.60
2018-07-14T01:27:43.227Z,94.50
2018-07-14T01:32:48.683Z,95.30
2018-07-14T01:37:53.243Z,95.10
2018-07-14T01:42:58.078Z,95.20
2018-07-14T01:48:02.562Z,95.30
2018-07-14T01:53:07.610Z,95.70
2018-07-14T01:58:12.266Z,95.80
2018-07-14T02:03:18.075Z,95.80
2018-07-14T02:08:23.948Z,95.80
2018-07-14T02:13:28.084Z,96.00
2018-07-14T02:18:32.448Z,95.90
2018-07-14T02:23:43.746Z,95.80
2018-07-14T02:28:49.298Z,96.30
2018-07-14T02:33:53.431Z,96.10
2018-07-14T02:38:57.956Z,96.40
2018-07-14T02:44:03.093Z,96.70
2018-07-14T02:49:07.855Z,96.50
2018-07-14T02:54:13.654Z,97.00
2018-07-14T02:59:18.032Z,96.50
2018-07-14T03:04:22.768Z,96.60
2018-07-14T03:09:27.780Z,96.60
2018-07-14T03:14:32.165Z,96.50
2018-07-14T03:19:36.855Z,96.50
2018-07-14T03:24:41.283Z,96.70
2018-07-14T03:29:46.024Z,96.90
2018-07-14T03:34:51.021Z,96.70
2018-07-14T03:39:55.342Z,97.00
2018-07-14T03:44:59.793Z,97.10
2018-07-14T03:50:04.152Z,97.20
2018-07-14T03:55:08.717Z,97.00
2018-07-14T04:00:12.812Z,97.40
2018-07-14T04:05:17.248Z,97.00
2018-07-14T04:10:21.844Z,97.00
2018-07-14T04:15:26.459Z,97.00
2018-07-14T04:20:31.369Z,96.90
2018-07-14T04:25:35.418Z,97.20
2018-07-14T04:30:40.008Z,97.10
2018-07-14T04:35:43.668Z,97.20
2018-07-14T04:40:47.905Z,97.20
2018-07-14T04:45:51.883Z,97.10
2018-07-14T04:50:56.735Z,97.20
2018-07-14T04:56:01.327Z,97.30
2018-07-14T05:01:05.689Z,97.10
2018-07-14T05:06:10.361Z,97.00
2018-07-14T05:11:15.107Z,96.80
2018-07-14T05:16:19.690Z,96.80
2018-07-14T05:21:24.340Z,96.60
2018-07-14T05:26:30.220Z,96.60
2018-07-14T05:31:36.671Z,96.60
2018-07-14T05:36:40.877Z,96.30
2018-07-14T05:41:44.953Z,96.10
2018-07-14T05:46:48.979Z,96.00
2018-07-14T05:51:53.524Z,95.90
2018-07-14T05:56:57.819Z,96.70
2018-07-14T06:02:01.815Z,96.10
2018-07-14T06:12:09.393Z,95.60
2018-07-14T06:17:13.273Z,95.50
2018-07-14T06:22:17.891Z,95.30
2018-07-14T06:27:21.933Z,95.60
2018-07-14T06:32:25.954Z,95.20
2018-07-14T06:37:30.368Z,95.00
2018-07-14T06:42:35.144Z,95.10
2018-07-14T06:47:39.507Z,94.90
2018-07-14T06:52:43.908Z,94.90
2018-07-14T06:57:48.497Z,95.00
2018-07-14T07:02:52.991Z,95.10
2018-07-14T07:07:57.496Z,94.00
2018-07-14T07:13:01.831Z,94.30
2018-07-14T07:18:06.378Z,94.50
2018-07-14T07:23:10.869Z,94.10
2018-07-14T07:28:15.561Z,93.00
2018-07-14T07:33:20.067Z,93.20
2018-07-14T07:38:24.871Z,93.00
2018-07-14T07:43:29.623Z,93.30
2018-07-14T07:48:34.482Z,93.50
2018-07-14T07:53:40.899Z,93.00
2018-07-14T07:58:45.446Z,92.30
2018-07-14T08:03:50.013Z,92.00
2018-07-14T08:08:54.627Z,92.70
2018-07-14T08:13:59.419Z,91.30
2018-07-14T08:19:04.555Z,91.30
2018-07-14T08:24:09.131Z,91.10
2018-07-14T08:29:14.070Z,90.80
2018-07-14T08:34:18.501Z,91.50
2018-07-14T08:39:22.978Z,91.30
2018-07-14T08:44:27.887Z,90.40
2018-07-14T08:49:32.422Z,90.20
2018-07-14T08:54:37.104Z,90.40
2018-07-14T08:59:42.641Z,89.70
2018-07-14T09:04:46.657Z,88.10
2018-07-14T09:09:51.715Z,87.50
2018-07-14T09:14:57.170Z,90.00
2018-07-14T09:20:01.633Z,88.50
2018-07-14T09:25:06.970Z,86.60
2018-07-14T09:30:11.319Z,89.00
2018-07-14T09:35:16.156Z,88.20
2018-07-14T09:40:20.540Z,86.50
2018-07-14T09:45:24.833Z,86.50
2018-07-14T09:50:30.300Z,88.00
2018-07-14T09:55:34.960Z,86.90
2018-07-14T10:00:43.729Z,86.50
2018-07-14T10:05:48.219Z,86.30
2018-07-14T10:10:52.425Z,84.60
2018-07-14T10:15:56.804Z,84.20
2018-07-14T10:21:02.148Z,83.70
2018-07-14T10:26:06.175Z,83.50
2018-07-14T10:31:10.410Z,82.10
2018-07-14T10:36:14.072Z,83.40
2018-07-14T10:41:17.838Z,81.40
2018-07-14T10:46:21.977Z,81.70
2018-07-14T10:51:26.115Z,81.90
2018-07-14T10:56:30.330Z,80.30
2018-07-14T11:01:34.984Z,80.40
2018-07-14T11:06:39.303Z,80.00
2018-07-14T11:11:43.551Z,79.70
2018-07-14T11:16:47.734Z,78.90
2018-07-14T11:21:52.036Z,77.50
2018-07-14T11:26:56.868Z,78.40
2018-07-14T11:32:01.738Z,78.20
2018-07-14T11:37:06.435Z,76.30
2018-07-14T11:42:10.825Z,77.90
2018-07-14T11:47:16.258Z,75.80
2018-07-14T11:52:20.970Z,75.70
2018-07-14T11:57:26.371Z,74.60
2018-07-14T12:02:30.255Z,74.50
2018-07-14T12:07:34.390Z,74.70
2018-07-14T12:12:38.866Z,73.70
2018-07-14T12:17:43.467Z,74.10
2018-07-14T12:22:48.027Z,73.10
2018-07-14T12:27:55.857Z,73.20
2018-07-14T12:33:00.011Z,72.20
2018-07-14T12:38:04.860Z,73.90
2018-07-14T12:43:08.150Z,72.60
2018-07-14T12:48:11.281Z,72.10
2018-07-14T12:53:14.417Z,70.10
2018-07-14T12:58:17.639Z,68.70
2018-07-14T13:03:20.785Z,67.70
2018-07-14T13:08:23.934Z,64.70
2018-07-14T13:13:27.071Z,63.80
2018-07-14T13:18:30.222Z,64.10
2018-07-14T13:23:33.798Z,64.80
2018-07-14T13:28:36.944Z,65.40
2018-07-14T13:33:40.085Z,64.10
2018-07-14T13:38:51.264Z,65.40
2018-07-14T13:43:46.677Z,63.70
2018-07-14T13:48:49.830Z,62.90
2018-07-14T13:53:52.937Z,62.40
2018-07-14T13:58:56.082Z,62.80
2018-07-14T14:03:59.212Z,60.30
2018-07-14T14:09:02.330Z,60.60
2018-07-14T14:14:06.009Z,62.90
2018-07-14T14:19:09.397Z,64.90
2018-07-14T14:24:12.840Z,64.70
2018-07-14T14:29:15.974Z,64.80
2018-07-14T14:34:19.125Z,63.00
2018-07-14T14:39:22.286Z,62.40
2018-07-14T14:44:25.446Z,62.30
2018-07-14T14:49:28.687Z,64.80
2018-07-14T14:54:31.890Z,61.70
2018-07-14T14:59:35.083Z,61.20
2018-07-14T15:04:38.217Z,60.20
2018-07-14T15:09:43.387Z,61.00
2018-07-14T15:14:46.596Z,59.20
2018-07-14T15:19:49.834Z,59.50
2018-07-14T15:24:53.062Z,60.90
2018-07-14T15:29:56.693Z,60.00
2018-07-14T15:34:59.851Z,60.30
2018-07-14T15:40:02.994Z,60.10
2018-07-14T15:45:06.175Z,61.50
2018-07-14T15:50:09.290Z,61.90
2018-07-14T15:55:12.396Z,60.20
2018-07-14T16:00:15.542Z,59.60
2018-07-14T16:05:18.666Z,62.50
2018-07-14T16:10:21.909Z,58.30
2018-07-14T16:15:25.622Z,58.60
2018-07-14T16:20:28.809Z,57.60
2018-07-14T16:25:31.945Z,57.80
2018-07-14T16:30:35.077Z,58.70
2018-07-14T16:35:38.241Z,58.60
2018-07-14T16:40:41.518Z,58.00
2018-07-14T16:45:44.758Z,57.10
2018-07-14T16:50:48.007Z,58.50
2018-07-14T16:55:51.227Z,57.50
2018-07-14T17:00:54.486Z,61.20
2018-07-14T17:05:57.595Z,59.20
2018-07-14T17:11:00.725Z,59.80
2018-07-14T17:16:03.860Z,57.80
2018-07-14T17:21:07.415Z,58.40
2018-07-14T17:26:13.033Z,59.20
2018-07-14T17:31:17.326Z,57.80
2018-07-14T17:36:20.755Z,59.20
2018-07-14T17:41:24.575Z,57.10
2018-07-14T17:46:27.762Z,56.40
2018-07-14T17:51:31.337Z,56.80
2018-07-14T17:56:34.429Z,58.80
2018-07-14T18:01:37.752Z,58.00
2018-07-14T18:06:40.956Z,60.40
2018-07-14T18:11:44.142Z,59.20
2018-07-14T18:16:47.323Z,58.40
2018-07-14T18:21:50.453Z,56.90
2018-07-14T18:26:53.582Z,61.10
2018-07-14T18:31:57.798Z,58.90
2018-07-14T18:37:00.975Z,59.40
2018-07-14T18:42:04.127Z,58.30
2018-07-14T18:47:07.533Z,57.60
2018-07-14T18:52:10.978Z,59.00
2018-07-14T18:57:14.116Z,57.60
2018-07-14T19:02:17.274Z,59.90
2018-07-14T19:07:20.420Z,59.00
2018-07-14T19:12:23.615Z,62.90
2018-07-14T19:17:26.781Z,64.10
2018-07-14T19:22:30.111Z,60.90
2018-07-14T19:27:33.271Z,61.40
2018-07-14T19:32:36.425Z,63.70
2018-07-14T19:37:39.545Z,63.20
2018-07-14T19:42:42.753Z,65.10
2018-07-14T19:47:45.978Z,66.30
2018-07-14T19:52:49.102Z,68.00
2018-07-14T19:57:52.281Z,68.50
2018-07-14T20:02:55.446Z,69.60
2018-07-14T20:07:58.667Z,69.60
2018-07-14T20:13:01.806Z,70.40
2018-07-14T20:18:05.684Z,71.40
2018-07-14T20:23:09.362Z,71.80
2018-07-14T20:28:12.489Z,73.90
2018-07-14T20:33:15.622Z,73.90
2018-07-14T20:38:18.774Z,74.90
2018-07-14T20:43:21.890Z,74.30
2018-07-14T20:48:25.057Z,73.80
2018-07-14T20:53:28.188Z,75.20
2018-07-14T20:58:31.440Z,76.10
2018-07-14T21:03:34.570Z,76.50
2018-07-14T21:08:37.738Z,76.90
2018-07-14T21:13:40.874Z,78.60
2018-07-14T21:18:44.119Z,79.30
2018-07-14T21:23:47.250Z,79.10
2018-07-14T21:28:50.502Z,79.10
2018-07-14T21:33:53.666Z,78.40
2018-07-14T21:38:56.774Z,78.80
2018-07-14T21:43:59.906Z,78.70
2018-07-14T21:49:03.054Z,78.20
2018-07-14T21:54:06.198Z,78.60
2018-07-14T21:59:09.385Z,79.10
2018-07-14T22:04:12.469Z,79.40
2018-07-14T22:09:15.609Z,80.10
2018-07-14T22:14:18.844Z,80.10
2018-07-14T22:19:21.979Z,79.80
2018-07-14T22:24:25.114Z,80.60
2018-07-14T22:29:28.284Z,81.60
2018-07-14T22:34:31.470Z,81.80
2018-07-14T22:39:34.604Z,82.20
2018-07-14T22:44:37.722Z,82.70
2018-07-14T22:49:40.910Z,83.70
2018-07-14T22:54:44.095Z,83.20
2018-07-14T22:59:47.318Z,82.90
2018-07-14T23:04:50.461Z,83.40
2018-07-14T23:09:53.636Z,83.90
2018-07-14T23:14:56.783Z,84.00
2018-07-14T23:19:59.922Z,84.50
2018-07-14T23:25:03.196Z,85.70
2018-07-14T23:30:06.701Z,85.40
2018-07-14T23:35:09.838Z,86.20
2018-07-14T23:40:13.002Z,86.30
2018-07-14T23:45:16.182Z,86.60
2018-07-14T23:50:19.300Z,86.40
2018-07-14T23:55:22.493Z,86.20
